Time;durP1;ratioP1;P1;durP2;ratioP2;P2;SDS_P1;SDS_P2;PMS_P1;PMS_P2;Temp;Humidity;BMP_temperature;BMP_pressure;BME280_temperature;BME280_humidity;BME280_pressure;Samples;Min_cycle;Max_cycle;Signal;HPM_P1;HPM_P2
2021/12/17 00:05:44;;;;;;;;;68.50;51.50;;;;;12.77;72.21;103410.47;5059835;28;62050;-75
2021/12/17 00:08:10;;;;;;;;;70.00;52.25;;;;;12.75;72.32;103415.63;5042279;28;65042;-75
2021/12/17 00:10:36;;;;;;;;;58.50;43.25;;;;;12.72;72.30;103419.75;5042805;28;61929;-75
2021/12/17 00:13:03;;;;;;;;;64.50;49.75;;;;;12.73;72.69;103424.25;5059367;28;62147;-75
2021/12/17 00:15:28;;;;;;;;;65.00;47.00;;;;;12.70;72.89;103416.97;5059882;28;62090;-75
2021/12/17 00:18:00;;;;;;;;;61.25;44.50;;;;;12.71;72.45;103415.28;5058670;28;62584;-76
2021/12/17 00:48:24;;;;;;;;;69.00;49.00;;;;;12.58;74.12;103406.41;5022632;28;61877;-75
2021/12/17 00:53:31;;;;;;;;;66.50;46.00;;;;;12.57;74.38;103393.13;5022842;28;61953;-76
2021/12/17 00:55:56;;;;;;;;;67.75;47.50;;;;;12.56;74.44;103396.56;5022172;28;61758;-75
2021/12/17 00:58:22;;;;;;;;;66.75;50.00;;;;;12.57;74.68;103399.28;5033420;28;61911;-75
2021/12/17 01:00:48;;;;;;;;;62.00;47.25;;;;;12.56;74.38;103393.94;5024243;28;64780;-75
2021/12/17 01:03:14;;;;;;;;;55.00;43.25;;;;;12.56;74.66;103393.94;5041500;28;62040;-75
2021/12/17 01:05:40;;;;;;;;;60.00;45.00;;;;;12.51;74.66;103392.63;5041803;28;62007;-75
2021/12/17 01:08:07;;;;;;;;;64.25;47.50;;;;;12.51;74.19;103395.25;5041560;28;61920;-75
2021/12/17 01:10:42;;;;;;;;;52.25;39.75;;;;;12.46;74.17;103395.81;5040736;28;63331;-75
2021/12/17 01:13:08;;;;;;;;;56.25;43.50;;;;;12.46;74.46;103387.91;5041077;28;61889;-75
2021/12/17 01:15:36;;;;;;;;;56.25;43.00;;;;;12.45;74.34;103396.63;5041486;28;61920;-76
2021/12/17 01:18:08;;;;;;;;;42.50;34.75;;;;;12.40;74.18;103389.16;5044519;28;61777;-75
2021/12/17 01:36:20;;;;;;;;;51.50;39.00;;;;;12.26;74.06;103393.34;5063656;28;61817;-75
2021/12/17 01:43:57;;;;;;;;;60.00;40.75;;;;;12.27;74.12;103393.47;5063342;28;62017;-75
2021/12/17 01:46:30;;;;;;;;;45.50;40.50;;;;;12.21;73.98;103385.09;5063525;28;62053;-75
2021/12/17 01:59:39;;;;;;;;;54.25;39.25;;;;;12.14;74.21;103390.63;5116325;27;61863;-74
2021/12/17 02:02:08;;;;;;;;;46.25;41.75;;;;;12.22;73.55;103389.53;5099238;27;61995;-74
2021/12/17 02:04:36;;;;;;;;;53.75;40.75;;;;;12.24;73.65;103387.03;5098400;27;61753;-74
2021/12/17 02:07:03;;;;;;;;;55.75;40.75;;;;;12.19;74.03;103377.81;5098840;27;61851;-74
2021/12/17 02:12:38;;;;;;;;;53.00;42.25;;;;;12.18;73.99;103386.53;5099243;27;61869;-74
2021/12/17 02:20:43;;;;;;;;;49.00;41.25;;;;;12.17;73.73;103392.59;5099097;27;61968;-74
2021/12/17 02:28:50;;;;;;;;;48.75;36.75;;;;;12.11;73.29;103384.22;5098074;27;62337;-74
2021/12/17 02:31:27;;;;;;;;;57.50;44.50;;;;;12.12;73.41;103386.03;5098856;27;61746;-74
2021/12/17 02:33:56;;;;;;;;;47.25;38.75;;;;;12.14;73.65;103377.47;5099251;27;61719;-74
2021/12/17 02:36:26;;;;;;;;;56.50;41.00;;;;;12.11;73.42;103384.22;5098776;27;61832;-74
2021/12/17 02:39:04;;;;;;;;;49.00;39.00;;;;;12.11;73.70;103381.59;5096890;27;64521;-74
2021/12/17 02:46:58;;;;;;;;;53.00;41.75;;;;;11.95;73.75;103376.78;5098891;27;61800;-74
2021/12/17 02:49:26;;;;;;;;;53.00;40.00;;;;;11.98;74.01;103380.59;5097593;27;62099;-74
2021/12/17 02:51:53;;;;;;;;;57.75;42.75;;;;;11.95;73.64;103371.53;5097203;27;62107;-74
2021/12/17 02:54:19;;;;;;;;;50.75;42.75;;;;;11.90;73.85;103362.34;5114200;27;61760;-74
2021/12/17 02:56:45;;;;;;;;;55.50;42.50;;;;;11.91;74.15;103365.13;5096921;27;61790;-74
2021/12/17 02:59:13;;;;;;;;;50.75;40.50;;;;;11.93;73.74;103365.22;5097340;27;61873;-74
2021/12/17 03:01:42;;;;;;;;;52.25;38.75;;;;;11.92;73.95;103366.03;5098605;27;61837;-74
2021/12/17 03:04:09;;;;;;;;;52.25;43.25;;;;;11.92;73.60;103359.06;5098616;27;61715;-74
2021/12/17 03:06:34;;;;;;;;;61.00;45.75;;;;;11.92;73.81;103371.28;5098142;27;61705;-74
2021/12/17 03:09:00;;;;;;;;;52.50;42.00;;;;;11.85;73.90;103354.97;5095182;27;62584;-74
2021/12/17 03:11:25;;;;;;;;;58.00;43.50;;;;;11.85;74.09;103367.22;5082957;28;62125;-74
2021/12/17 03:13:52;;;;;;;;;61.00;43.25;;;;;11.88;74.03;103364.84;5084372;27;61851;-73
2021/12/17 03:16:39;;;;;;;;;53.75;41.75;;;;;11.90;73.99;103363.28;5084902;28;61739;-73
2021/12/17 03:24:34;;;;;;;;;56.75;43.50;;;;;11.93;74.08;103355.59;5021632;28;61840;-74
2021/12/17 03:26:59;;;;;;;;;52.25;40.50;;;;;11.95;73.76;103368.91;5021513;28;61840;-75
2021/12/17 03:29:24;;;;;;;;;60.50;42.50;;;;;11.91;73.71;103358.91;5020644;28;62679;-76
2021/12/17 03:31:50;;;;;;;;;56.00;42.25;;;;;11.89;74.07;103349.97;5021674;28;61941;-74
2021/12/17 03:34:22;;;;;;;;;54.00;41.75;;;;;11.92;74.02;103355.50;5021319;28;61994;-75
2021/12/17 03:36:54;;;;;;;;;55.25;40.25;;;;;11.90;73.88;103354.47;5005028;28;61922;-75
2021/12/17 03:39:26;;;;;;;;;51.50;41.75;;;;;11.88;74.13;103362.22;5020843;28;62196;-75
2021/12/17 03:41:52;;;;;;;;;60.25;41.75;;;;;11.92;74.09;103363.41;5004509;28;62136;-75
2021/12/17 03:44:20;;;;;;;;;62.75;40.00;;;;;11.90;73.86;103358.00;5021182;28;62184;-75
2021/12/17 03:46:47;;;;;;;;;55.25;43.00;;;;;11.90;74.26;103371.16;5021538;28;62062;-75
2021/12/17 03:49:14;;;;;;;;;50.00;41.25;;;;;11.96;73.96;103368.13;5020455;28;62847;-75
2021/12/17 03:51:54;;;;;;;;;60.25;43.25;;;;;11.96;73.96;103368.13;5021025;28;61927;-75
2021/12/17 03:54:19;;;;;;;;;62.25;43.50;;;;;11.98;73.89;103370.06;5021330;28;61830;-74
2021/12/17 03:56:45;;;;;;;;;53.75;42.50;;;;;12.06;73.87;103360.13;5021167;28;62827;-75
2021/12/17 03:59:10;;;;;;;;;40.75;39.25;;;;;12.14;73.81;103364.31;5051842;28;62538;-75
2021/12/17 04:01:40;;;;;;;;;59.25;43.50;;;;;12.16;73.62;103367.06;5062078;28;61812;-75
2021/12/17 04:04:06;;;;;;;;;49.00;41.75;;;;;12.26;73.45;103374.91;5062188;28;61882;-75
2021/12/17 04:06:32;;;;;;;;;63.75;46.75;;;;;12.37;73.49;103370.47;5062054;28;61824;-76
2021/12/17 04:08:58;;;;;;;;;46.50;43.25;;;;;12.44;73.54;103367.53;5062876;28;61903;-75
2021/12/17 04:11:23;;;;;;;;;52.50;41.25;;;;;12.49;72.99;103360.91;5063418;28;61866;-75
2021/12/17 04:13:57;;;;;;;;;48.00;39.50;;;;;12.57;72.70;103362.41;5062943;28;61925;-75
2021/12/17 04:16:27;;;;;;;;;59.50;39.25;;;;;12.58;72.87;103361.63;5063754;28;61974;-75
2021/12/17 04:18:54;;;;;;;;;47.25;38.50;;;;;12.63;72.83;103361.97;5062543;28;61871;-75
2021/12/17 04:21:20;;;;;;;;;55.75;41.75;;;;;12.64;72.59;103355.94;5062299;28;62324;-75
2021/12/17 04:23:48;;;;;;;;;50.25;41.50;;;;;12.70;72.84;103361.63;5063396;28;61791;-75
2021/12/17 04:26:17;;;;;;;;;45.25;36.50;;;;;12.77;72.91;103353.44;5063124;28;61855;-75
2021/12/17 04:28:47;;;;;;;;;56.00;38.50;;;;;12.81;72.58;103347.59;5077480;28;63860;-75
2021/12/17 04:31:14;;;;;;;;;56.50;40.00;;;;;12.88;72.54;103347.25;5063249;28;61832;-75
2021/12/17 04:33:42;;;;;;;;;62.50;40.25;;;;;12.92;72.53;103351.03;5063083;28;61702;-75
2021/12/17 04:36:10;;;;;;;;;52.00;40.00;;;;;12.94;72.37;103340.59;5063407;28;61794;-75
2021/12/17 04:38:36;;;;;;;;;54.75;41.25;;;;;12.98;72.50;103343.59;5060957;28;63894;-76
2021/12/17 04:46:37;;;;;;;;;58.50;43.00;;;;;13.06;72.09;103345.06;5063132;28;61814;-76
2021/12/17 04:57:34;;;;;;;;;45.75;39.00;;;;;12.97;72.58;103344.38;5044528;28;62327;-75
2021/12/17 05:00:05;;;;;;;;;44.75;41.00;;;;;13.01;72.80;103346.47;5059675;28;62651;-75
2021/12/17 05:02:36;;;;;;;;;46.50;38.75;;;;;13.07;72.95;103341.66;5059998;28;61808;-75
2021/12/17 05:05:06;;;;;;;;;45.75;37.75;;;;;13.08;73.02;103337.28;5060290;28;61801;-75
2021/12/17 05:07:37;;;;;;;;;40.75;38.25;;;;;13.18;73.07;103344.19;5060496;28;61886;-76
2021/12/17 05:18:24;;;;;;;;;58.25;43.75;;;;;13.34;72.74;103349.81;5057057;28;61893;-76
2021/12/17 05:20:56;;;;;;;;;56.25;40.00;;;;;13.35;72.45;103348.13;5048338;28;62557;-76
2021/12/17 05:23:33;;;;;;;;;56.25;37.75;;;;;13.35;72.59;103345.47;5048302;28;61840;-76
2021/12/17 05:26:06;;;;;;;;;50.25;32.00;;;;;13.36;72.31;103342.94;5047473;28;61929;-75
2021/12/17 05:28:34;;;;;;;;;41.75;37.00;;;;;13.33;72.77;103345.38;5057484;28;61945;-76
2021/12/17 05:31:00;;;;;;;;;46.25;36.00;;;;;13.36;72.92;103342.94;5080902;28;61851;-75
2021/12/17 05:33:27;;;;;;;;;44.75;30.75;;;;;13.40;72.56;103347.63;5081670;28;61737;-76
2021/12/17 05:35:53;;;;;;;;;56.25;37.75;;;;;13.45;72.58;103343.63;5080567;28;61886;-75
2021/12/17 05:38:20;;;;;;;;;48.75;37.75;;;;;13.40;72.67;103339.72;5082349;27;61729;-76
2021/12/17 05:40:47;;;;;;;;;44.75;33.75;;;;;13.39;72.60;103345.81;5081226;28;63192;-76
2021/12/17 05:43:15;;;;;;;;;44.00;34.50;;;;;13.41;73.12;103335.34;5081632;27;62229;-76
2021/12/17 05:48:09;;;;;;;;;48.50;35.00;;;;;13.52;72.87;103339.72;5078930;28;61896;-76
2021/12/17 05:50:38;;;;;;;;;47.50;39.25;;;;;13.53;72.78;103336.25;5081131;27;62722;-75
2021/12/17 05:53:04;;;;;;;;;46.75;31.50;;;;;13.55;72.76;103336.38;5081645;28;61862;-76
2021/12/17 05:55:30;;;;;;;;;43.50;35.00;;;;;13.56;72.80;103336.50;5080070;28;62166;-76
2021/12/17 05:57:56;;;;;;;;;40.00;30.00;;;;;13.54;72.85;103327.56;5078584;27;61868;-76
2021/12/17 06:00:23;;;;;;;;;38.00;33.00;;;;;13.58;72.79;103334.91;5048998;28;64860;-76
2021/12/17 06:02:49;;;;;;;;;40.25;30.75;;;;;13.58;72.54;103332.25;5062036;28;61874;-75
2021/12/17 06:05:14;;;;;;;;;43.50;33.75;;;;;13.62;72.25;103331.66;5061793;28;62272;-75
2021/12/17 06:07:40;;;;;;;;;46.25;37.00;;;;;13.62;72.82;103334.28;5062187;28;61914;-75
2021/12/17 06:10:08;;;;;;;;;43.25;34.75;;;;;13.62;72.58;103331.66;5042810;28;63522;-76
2021/12/17 06:12:34;;;;;;;;;45.00;38.00;;;;;13.63;72.38;103332.59;5043431;28;61743;-76
2021/12/17 06:15:02;;;;;;;;;57.00;40.25;;;;;13.65;72.85;103331.91;5064823;28;61695;-76
2021/12/17 06:17:27;;;;;;;;;52.50;38.00;;;;;13.64;72.27;103332.69;5064178;28;62053;-76
2021/12/17 06:19:53;;;;;;;;;45.75;39.50;;;;;13.64;72.34;103331.78;5081378;28;61833;-76
2021/12/17 06:22:18;;;;;;;;;49.50;39.25;;;;;13.63;72.52;103335.22;5081304;28;61735;-75
2021/12/17 06:24:45;;;;;;;;;40.25;36.00;;;;;13.61;72.67;103332.47;5063455;28;62053;-76
2021/12/17 06:27:12;;;;;;;;;50.75;37.00;;;;;13.63;72.90;103335.22;5081769;28;61828;-75
2021/12/17 06:29:38;;;;;;;;;38.25;34.00;;;;;13.66;72.63;103338.09;5063378;28;63840;-75
2021/12/17 06:32:04;;;;;;;;;46.25;35.75;;;;;13.66;72.47;103340.72;5041250;28;61977;-75
2021/12/17 06:34:30;;;;;;;;;45.25;33.75;;;;;13.62;72.60;103333.38;5057356;28;61945;-78
2021/12/17 06:36:56;;;;;;;;;47.25;35.50;;;;;13.65;72.56;103339.81;5043373;28;62580;-76
2021/12/17 06:39:21;;;;;;;;;56.50;40.50;;;;;13.66;72.64;103336.34;5068154;28;62066;-77
2021/12/17 06:41:47;;;;;;;;;45.25;36.75;;;;;13.67;72.49;103335.56;5070131;28;61712;-77
2021/12/17 06:44:16;;;;;;;;;62.50;44.00;;;;;13.65;72.57;103345.09;5071732;28;61880;-77
2021/12/17 07:00:13;;;;;;;;;60.25;44.00;;;;;13.76;72.41;103348.50;5043861;28;62279;-77
2021/12/17 07:10:53;;;;;;;;;67.00;50.25;;;;;13.75;72.56;103344.03;5043760;28;62316;-76
2021/12/17 07:22:19;;;;;;;;;52.00;38.75;;;;;13.77;72.52;103352.06;5057868;28;61847;-77
2021/12/17 07:32:41;;;;;;;;;45.25;41.25;;;;;13.87;72.61;103358.13;5062440;28;61953;-76
2021/12/17 07:40:11;;;;;;;;;55.25;41.75;;;;;13.91;72.77;103365.44;5062941;28;62078;-77
2021/12/17 07:42:37;;;;;;;;;61.00;44.50;;;;;13.94;72.84;103367.41;5060959;28;61921;-77
2021/12/17 07:45:07;;;;;;;;;56.25;41.00;;;;;13.97;72.77;103370.28;5062348;28;61993;-76
2021/12/17 07:47:33;;;;;;;;;55.75;41.25;;;;;13.96;72.59;103363.13;5059974;28;61842;-76
2021/12/17 07:49:58;;;;;;;;;61.75;46.25;;;;;13.99;72.74;103365.06;5043534;28;62326;-76
2021/12/17 07:52:23;;;;;;;;;57.75;44.00;;;;;14.01;72.89;103368.75;5061366;28;61776;-76
2021/12/17 07:54:49;;;;;;;;;61.50;41.00;;;;;14.00;72.57;103359.00;5044695;28;61994;-77
2021/12/17 07:57:14;;;;;;;;;59.00;40.75;;;;;14.01;72.49;103361.78;5062005;28;61731;-75
2021/12/17 07:59:40;;;;;;;;;79.75;57.75;;;;;14.04;72.66;103363.72;5063379;28;62051;-77
2021/12/17 08:02:07;;;;;;;;;71.50;51.25;;;;;14.06;72.72;103356.81;5062647;28;62428;-77
2021/12/17 08:04:33;;;;;;;;;44.25;38.25;;;;;14.05;72.76;103363.81;5066476;28;61960;-77
2021/12/17 08:06:58;;;;;;;;;60.75;46.75;;;;;14.06;72.71;103360.34;5082585;28;61750;-77
2021/12/17 08:09:25;;;;;;;;;58.25;50.00;;;;;14.09;72.67;103359.66;5083423;27;62088;-77
2021/12/17 08:11:55;;;;;;;;;64.00;43.75;;;;;14.11;72.58;103360.69;5083103;27;61676;-77
2021/12/17 08:14:21;;;;;;;;;49.75;40.50;;;;;14.11;72.92;103363.31;5083355;27;61923;-77
2021/12/17 08:16:58;;;;;;;;;52.50;43.75;;;;;14.13;72.67;103358.16;5083941;28;61889;-77
2021/12/17 08:32:35;;;;;;;;;51.25;41.25;;;;;14.21;72.73;103371.09;5082451;28;61975;-78
2021/12/17 08:35:04;;;;;;;;;52.50;39.50;;;;;14.25;73.03;103382.81;5082182;28;61810;-78
2021/12/17 08:37:31;;;;;;;;;54.50;43.00;;;;;14.20;72.61;103374.53;5082858;27;62084;-78
2021/12/17 08:39:56;;;;;;;;;48.00;40.25;;;;;14.21;72.66;103384.31;5081544;28;61806;-78
2021/12/17 08:42:22;;;;;;;;;38.50;35.25;;;;;14.19;72.57;103380.66;5082036;27;61776;-78
2021/12/17 08:44:47;;;;;;;;;44.50;35.50;;;;;14.22;72.91;103377.28;5081371;28;61798;-78
2021/12/17 08:47:12;;;;;;;;;43.25;36.75;;;;;14.28;72.94;103373.34;5083208;28;61782;-78
2021/12/17 08:49:40;;;;;;;;;52.75;38.25;;;;;14.31;72.94;103364.75;5076805;28;61759;-78
2021/12/17 08:52:07;;;;;;;;;40.00;35.00;;;;;14.24;72.45;103365.13;5061768;28;62174;-78
2021/12/17 08:54:32;;;;;;;;;46.75;39.50;;;;;14.28;73.05;103369.81;5062070;28;61703;-78
2021/12/17 08:57:00;;;;;;;;;52.50;38.50;;;;;14.32;72.76;103364.84;5062391;28;61768;-78
2021/12/17 08:59:27;;;;;;;;;46.25;34.75;;;;;14.28;73.04;103362.78;5082741;28;61945;-78
2021/12/17 09:01:52;;;;;;;;;43.75;36.75;;;;;14.11;73.10;103366.88;5082214;28;61852;-78
2021/12/17 09:04:18;;;;;;;;;43.00;36.00;;;;;14.25;73.14;103369.59;5081637;28;61909;-78
2021/12/17 09:06:43;;;;;;;;;40.50;30.00;;;;;14.24;73.49;103376.59;5081072;27;62522;-79
2021/12/17 09:09:09;;;;;;;;;40.50;29.50;;;;;14.28;72.94;103378.66;5080839;28;62023;-78
2021/12/17 09:11:36;;;;;;;;;37.75;30.25;;;;;14.21;73.34;103375.47;5082048;27;61799;-78
2021/12/17 09:14:03;;;;;;;;;45.75;36.00;;;;;14.25;73.75;103380.19;5082346;28;61952;-78
2021/12/17 09:16:29;;;;;;;;;41.25;34.25;;;;;14.27;73.74;103381.19;5082811;28;61921;-78
2021/12/17 09:18:55;;;;;;;;;48.75;39.25;;;;;14.34;73.38;103388.75;5082871;27;61889;-78
2021/12/17 09:21:21;;;;;;;;;50.00;37.75;;;;;14.43;73.66;103381.47;5082088;27;61852;-78
2021/12/17 09:23:47;;;;;;;;;50.50;40.50;;;;;14.51;73.06;103380.28;5080439;28;61726;-78
2021/12/17 09:26:15;;;;;;;;;35.75;29.75;;;;;14.46;72.95;103396.59;5081643;27;61830;-78
2021/12/17 09:28:40;;;;;;;;;47.00;35.50;;;;;14.32;73.21;103385.97;5080130;28;61757;-78
2021/12/17 09:31:11;;;;;;;;;46.00;32.00;;;;;14.26;73.46;103395.19;5081628;27;62079;-78
2021/12/17 09:33:44;;;;;;;;;35.00;30.25;;;;;14.17;73.36;103398.09;5082425;27;61779;-78
2021/12/17 09:36:10;;;;;;;;;30.00;22.75;;;;;14.09;73.83;103394.00;5082291;28;61808;-78
2021/12/17 09:38:36;;;;;;;;;34.75;25.00;;;;;14.19;74.09;103398.22;5080944;28;62189;-78
2021/12/17 09:41:02;;;;;;;;;35.00;32.75;;;;;14.21;73.83;103402.81;5080143;28;64146;-78
2021/12/17 09:43:32;;;;;;;;;37.75;28.00;;;;;14.32;73.51;103400.94;5082065;28;61814;-78
2021/12/17 09:45:58;;;;;;;;;29.75;25.75;;;;;14.29;73.18;103395.44;5080551;28;62203;-78
2021/12/17 09:48:24;;;;;;;;;38.00;29.75;;;;;14.34;73.60;103409.88;5082338;27;61805;-78
2021/12/17 09:50:52;;;;;;;;;41.50;30.50;;;;;14.28;73.40;103410.34;5081245;28;62059;-78
2021/12/17 09:53:17;;;;;;;;;42.50;32.75;;;;;14.28;73.51;103410.34;5082230;28;61716;-78
2021/12/17 09:55:43;;;;;;;;;38.75;26.25;;;;;14.26;73.48;103416.34;5082087;28;61801;-78
2021/12/17 09:58:08;;;;;;;;;31.50;25.00;;;;;14.25;73.13;103411.88;5081219;28;62182;-78
2021/12/17 10:00:34;;;;;;;;;42.50;27.25;;;;;14.20;73.46;103414.16;5079509;28;64974;-78
2021/12/17 10:02:59;;;;;;;;;33.75;27.00;;;;;14.19;73.39;103414.06;5080524;28;61837;-78
2021/12/17 10:05:30;;;;;;;;;40.50;32.25;;;;;14.26;73.94;103421.63;5080333;28;61943;-78
2021/12/17 10:07:58;;;;;;;;;34.50;27.25;;;;;14.19;74.20;103425.56;5082312;27;61632;-78
2021/12/17 10:10:44;;;;;;;;;34.75;29.25;;;;;14.32;73.86;103416.78;5079875;28;63968;-78
2021/12/17 10:13:16;;;;;;;;;35.75;28.00;;;;;14.39;73.54;103418.13;5080313;28;62018;-78
2021/12/17 10:15:46;;;;;;;;;35.00;27.00;;;;;14.46;73.52;103423.03;5080389;28;61808;-78
2021/12/17 10:18:13;;;;;;;;;46.25;27.50;;;;;14.45;73.29;103419.47;5081711;27;61981;-77
2021/12/17 10:20:54;;;;;;;;;40.50;30.00;;;;;14.43;73.39;103406.97;5083043;27;61801;-78
2021/12/17 10:23:22;;;;;;;;;36.50;29.75;;;;;14.52;73.57;103410.25;5085346;27;61880;-78
2021/12/17 10:25:48;;;;;;;;;52.25;33.75;;;;;14.53;73.36;103402.44;5084924;27;61862;-78
2021/12/17 10:28:14;;;;;;;;;34.50;27.50;;;;;14.53;73.08;103406.81;5084712;28;61805;-78
2021/12/17 10:30:44;;;;;;;;;47.75;33.25;;;;;14.49;73.48;103400.38;5084279;27;62826;-78
2021/12/17 10:33:13;;;;;;;;;49.50;32.25;;;;;14.60;73.14;103393.25;5083849;28;62013;-77
2021/12/17 10:35:44;;;;;;;;;42.25;34.25;;;;;14.58;72.93;103381.66;5083675;28;61854;-78
2021/12/17 10:38:12;;;;;;;;;40.25;27.25;;;;;14.59;73.04;103382.56;5085420;28;61777;-78
2021/12/17 10:40:48;;;;;;;;;36.50;30.75;;;;;14.66;72.71;103376.91;5082924;28;64839;-78
2021/12/17 10:43:31;;;;;;;;;44.00;33.00;;;;;14.73;72.46;103384.44;5084882;28;61986;-78
2021/12/17 10:46:20;;;;;;;;;43.50;25.75;;;;;14.76;72.16;103374.09;5085003;28;61772;-78
2021/12/17 10:51:31;;;;;;;;;42.75;33.50;;;;;14.89;72.07;103366.19;5084286;28;61732;-78
2021/12/17 10:54:04;;;;;;;;;33.00;28.75;;;;;14.92;71.50;103358.44;5083301;28;61990;-78
2021/12/17 10:56:38;;;;;;;;;32.75;32.00;;;;;14.98;71.27;103359.69;5083271;28;61832;-78
2021/12/17 10:59:11;;;;;;;;;44.00;31.25;;;;;15.06;70.96;103358.47;5066982;28;61899;-78
2021/12/17 11:01:49;;;;;;;;;35.00;29.50;;;;;15.12;71.06;103346.59;5079619;28;62698;-78
2021/12/17 11:04:18;;;;;;;;;37.75;30.50;;;;;15.22;70.62;103349.84;5082654;28;62058;-78
2021/12/17 11:06:54;;;;;;;;;41.50;33.00;;;;;15.19;70.64;103344.31;5084043;27;61724;-78
2021/12/17 11:09:44;;;;;;;;;52.50;33.25;;;;;15.30;70.72;103341.59;5084810;28;61824;-78
2021/12/17 11:12:28;;;;;;;;;41.25;31.00;;;;;15.31;70.04;103330.19;5099486;27;63868;-78
2021/12/17 11:15:18;;;;;;;;;41.75;35.75;;;;;15.31;69.16;103326.63;5063948;28;61996;-78
2021/12/17 11:17:46;;;;;;;;;35.25;30.00;;;;;15.36;69.97;103321.63;5080129;28;61874;-78
2021/12/17 11:20:14;;;;;;;;;41.75;31.50;;;;;15.44;69.81;103310.72;5064331;28;61878;-78
2021/12/17 11:22:43;;;;;;;;;41.50;33.75;;;;;15.53;69.26;103319.28;5078789;28;63761;-78
2021/12/17 11:25:09;;;;;;;;;51.50;32.50;;;;;15.48;68.60;103319.78;5063866;28;61974;-78
2021/12/17 11:27:35;;;;;;;;;52.00;33.25;;;;;15.56;68.95;103315.00;5062919;28;61882;-78
2021/12/17 11:30:04;;;;;;;;;51.50;34.75;;;;;15.60;68.45;103322.34;5061893;28;61886;-78
2021/12/17 11:32:31;;;;;;;;;47.50;33.25;;;;;15.65;69.28;103318.22;5063218;28;62036;-79
2021/12/17 11:35:01;;;;;;;;;36.00;29.25;;;;;15.59;67.60;103310.81;5079422;28;61714;-77
2021/12/17 11:37:27;;;;;;;;;39.50;29.00;;;;;15.72;68.51;103301.94;5083996;27;61807;-78
2021/12/17 11:39:59;;;;;;;;;53.50;36.50;;;;;15.77;67.54;103305.81;5084167;28;61880;-77
2021/12/17 11:42:42;;;;;;;;;32.50;25.50;;;;;15.80;67.55;103297.16;5078378;28;61901;-77
2021/12/17 11:45:25;;;;;;;;;40.00;30.75;;;;;15.81;67.14;103304.25;5080107;28;61783;-77
2021/12/17 11:47:53;;;;;;;;;35.00;27.25;;;;;15.68;66.34;103289.28;5081347;28;61840;-78
2021/12/17 11:50:18;;;;;;;;;41.25;30.50;;;;;15.75;66.88;103291.56;5084119;27;61845;-77
2021/12/17 11:52:45;;;;;;;;;37.00;27.50;;;;;15.82;66.52;103288.47;5082914;27;61820;-77
2021/12/17 11:55:20;;;;;;;;;31.50;29.75;;;;;15.81;65.94;103291.03;5081780;28;61753;-77
2021/12/17 11:57:47;;;;;;;;;34.50;30.50;;;;;15.82;65.32;103279.63;5083291;27;62167;-77
2021/12/17 12:00:18;;;;;;;;;34.75;27.25;;;;;15.79;64.43;103282.06;5083234;28;62071;-78
2021/12/17 12:02:49;;;;;;;;;36.50;30.00;;;;;15.68;64.81;103282.28;5081025;28;62789;-77
2021/12/17 12:05:36;;;;;;;;;38.50;31.75;;;;;15.85;65.22;103269.22;5080848;28;61804;-78
2021/12/17 12:08:33;;;;;;;;;39.50;30.50;;;;;15.91;64.22;103274.91;5082244;28;61910;-78
2021/12/17 12:11:18;;;;;;;;;26.50;24.50;;;;;15.91;64.59;103274.91;5074784;28;61965;-78
2021/12/17 12:13:48;;;;;;;;;33.50;25.00;;;;;15.96;63.77;103268.16;5082532;28;62828;-79
2021/12/17 12:16:22;;;;;;;;;35.75;24.25;;;;;15.95;63.71;103269.88;5082895;28;61815;-78
2021/12/17 12:18:50;;;;;;;;;30.75;24.00;;;;;15.98;63.43;103270.88;5082584;28;61902;-79
2021/12/17 12:21:32;;;;;;;;;32.00;25.75;;;;;16.07;64.02;103261.78;5098127;27;61937;-81
2021/12/17 12:24:09;;;;;;;;;32.50;30.25;;;;;16.09;63.22;103270.75;5081341;27;62795;-79
2021/12/17 12:26:51;;;;;;;;;28.25;25.50;;;;;16.01;62.87;103263.16;5082512;27;61867;-81
2021/12/17 12:29:21;;;;;;;;;35.50;30.00;;;;;16.02;62.81;103254.38;5080039;28;62013;-79
2021/12/17 12:32:00;;;;;;;;;28.00;22.50;;;;;16.10;63.05;103251.38;5080197;28;61874;-79
2021/12/17 12:34:35;;;;;;;;;32.50;28.25;;;;;16.17;62.95;103250.00;5082066;28;61858;-79
2021/12/17 12:37:07;;;;;;;;;34.50;20.50;;;;;16.28;62.61;103242.72;5082384;27;62050;-79
2021/12/17 12:39:41;;;;;;;;;43.25;32.25;;;;;16.25;62.82;103240.78;5083082;27;61753;-79
2021/12/17 12:42:17;;;;;;;;;37.75;29.50;;;;;16.37;63.26;103240.63;5082034;27;61887;-79
2021/12/17 12:44:42;;;;;;;;;36.25;31.25;;;;;16.45;62.86;103243.72;5080939;28;63698;-78
2021/12/17 12:47:09;;;;;;;;;49.25;31.00;;;;;16.44;63.19;103237.50;5082622;27;61835;-78
2021/12/17 12:49:52;;;;;;;;;35.00;28.75;;;;;16.55;62.48;103241.72;5083105;28;61793;-79
2021/12/17 12:52:25;;;;;;;;;35.75;30.75;;;;;16.64;62.92;103245.75;5082689;28;61947;-79
2021/12/17 12:55:06;;;;;;;;;33.50;28.50;;;;;16.66;62.81;103241.44;5082031;27;61895;-79
2021/12/17 12:57:40;;;;;;;;;40.75;31.00;;;;;16.71;61.53;103239.97;5079548;27;61975;-80
2021/12/17 13:00:26;;;;;;;;;31.00;26.00;;;;;16.85;61.06;103219.59;5079288;28;62020;-81
2021/12/17 13:02:55;;;;;;;;;40.00;30.25;;;;;17.08;61.11;103219.16;5081664;28;62812;-81
2021/12/17 13:05:21;;;;;;;;;39.00;28.50;;;;;17.33;61.26;103224.13;5103027;27;64724;-80
2021/12/17 13:07:50;;;;;;;;;42.25;31.50;;;;;17.45;59.44;103218.56;5081137;28;62283;-80
2021/12/17 13:10:21;;;;;;;;;37.50;26.75;;;;;17.49;60.10;103220.56;5082153;27;61917;-81
2021/12/17 13:13:00;;;;;;;;;30.75;22.50;;;;;17.30;59.71;103229.25;5081340;28;61821;-80
2021/12/17 13:15:39;;;;;;;;;33.00;25.50;;;;;17.07;59.94;103230.59;5097629;27;63697;-80
2021/12/17 13:23:29;;;;;;;;;32.50;25.25;;;;;17.30;59.83;103229.25;5082369;27;61916;-77
2021/12/17 13:26:13;;;;;;;;;32.50;29.00;;;;;17.36;60.49;103223.38;5081566;27;61841;-77
2021/12/17 13:28:56;;;;;;;;;32.50;27.50;;;;;18.97;56.91;103215.91;5080011;28;61856;-78
2021/12/17 13:31:37;;;;;;;;;30.50;24.50;;;;;19.31;55.80;103206.88;5080695;28;62002;-78
2021/12/17 13:34:08;;;;;;;;;29.00;17.75;;;;;19.11;57.89;103208.59;5082414;28;61971;-78
2021/12/17 13:36:34;;;;;;;;;33.50;27.25;;;;;18.63;58.30;103207.06;5095361;27;63824;-78
2021/12/17 13:39:00;;;;;;;;;31.00;23.75;;;;;18.11;56.47;103213.28;5080863;28;61836;-78
2021/12/17 13:41:38;;;;;;;;;32.75;24.00;;;;;17.68;58.47;103221.59;5081818;27;61872;-78
2021/12/17 13:44:04;;;;;;;;;35.25;29.25;;;;;17.36;58.03;103224.28;5079659;28;61899;-79
2021/12/17 13:46:29;;;;;;;;;29.50;27.50;;;;;17.21;59.28;103225.19;5096712;27;63904;-79
2021/12/17 13:48:55;;;;;;;;;38.00;29.00;;;;;17.07;59.06;103211.13;5079906;28;62089;-79
2021/12/17 13:51:20;;;;;;;;;24.75;18.00;;;;;16.89;59.28;103217.19;5088537;27;61891;-79
2021/12/17 13:53:46;;;;;;;;;30.25;27.75;;;;;16.75;59.45;103212.78;5081499;28;62022;-79
2021/12/17 13:56:16;;;;;;;;;30.00;25.75;;;;;16.60;60.43;103215.47;5078017;27;62455;-78
2021/12/17 13:58:42;;;;;;;;;28.75;23.00;;;;;16.55;60.31;103207.25;5074210;27;62096;-79
2021/12/17 14:01:07;;;;;;;;;44.25;33.00;;;;;16.58;61.30;103201.19;5073440;28;61956;-79
2021/12/17 14:03:38;;;;;;;;;31.25;30.25;;;;;16.64;61.31;103203.31;5079403;28;62034;-79
2021/12/17 14:06:19;;;;;;;;;30.75;30.00;;;;;16.53;60.66;103194.72;5078571;28;63781;-79
2021/12/17 14:08:45;;;;;;;;;41.75;29.50;;;;;16.49;60.91;103187.41;5080490;28;61920;-79
2021/12/17 14:11:30;;;;;;;;;47.00;32.25;;;;;16.51;61.56;103188.41;5079971;28;61885;-79
2021/12/17 14:13:56;;;;;;;;;36.50;30.25;;;;;16.52;61.55;103192.91;5078367;28;61884;-79
2021/12/17 14:16:33;;;;;;;;;39.50;31.25;;;;;16.55;61.75;103201.94;5079888;28;62250;-78
2021/12/17 14:19:00;;;;;;;;;40.00;31.00;;;;;16.55;61.61;103196.63;5080793;28;61869;-79
2021/12/17 14:21:28;;;;;;;;;29.75;28.25;;;;;16.49;61.22;103196.28;5080529;28;61906;-79